sensor_id;sensor_type;location;lat;lon;timestamp;P1;durP1;ratioP1;P2;durP2;ratioP2
77080;SDS011;66009;53.150;18.160;2023-04-21T00:02:13;19.70;;;10.40;;
77080;SDS011;66009;53.150;18.160;2023-04-21T00:04:41;17.60;;;9.60;;
77080;SDS011;66009;53.150;18.160;2023-04-21T00:07:10;21.70;;;11.30;;
77080;SDS011;66009;53.150;18.160;2023-04-21T00:09:37;22.90;;;10.80;;
77080;SDS011;66009;53.150;18.160;2023-04-21T00:12:03;22.10;;;11.00;;
77080;SDS011;66009;53.150;18.160;2023-04-21T00:14:30;24.40;;;10.80;;
77080;SDS011;66009;53.150;18.160;2023-04-21T00:16:56;21.10;;;10.00;;
77080;SDS011;66009;53.150;18.160;2023-04-21T00:19:25;18.30;;;9.60;;
77080;SDS011;66009;53.150;18.160;2023-04-21T00:21:51;18.70;;;9.70;;
77080;SDS011;66009;53.150;18.160;2023-04-21T00:24:26;25.80;;;12.80;;
77080;SDS011;66009;53.150;18.160;2023-04-21T00:26:53;24.60;;;12.40;;
77080;SDS011;66009;53.150;18.160;2023-04-21T00:29:19;23.60;;;11.70;;
77080;SDS011;66009;53.150;18.160;2023-04-21T00:31:46;22.90;;;11.50;;
77080;SDS011;66009;53.150;18.160;2023-04-21T00:34:12;18.70;;;10.00;;
77080;SDS011;66009;53.150;18.160;2023-04-21T00:36:38;17.10;;;9.30;;
77080;SDS011;66009;53.150;18.160;2023-04-21T00:39:05;23.60;;;10.60;;
77080;SDS011;66009;53.150;18.160;2023-04-21T00:41:32;21.10;;;10.40;;
77080;SDS011;66009;53.150;18.160;2023-04-21T00:44:04;21.30;;;11.10;;
77080;SDS011;66009;53.150;18.160;2023-04-21T00:46:31;21.60;;;11.40;;
77080;SDS011;66009;53.150;18.160;2023-04-21T00:48:59;20.90;;;9.70;;
77080;SDS011;66009;53.150;18.160;2023-04-21T00:51:27;16.90;;;8.90;;
77080;SDS011;66009;53.150;18.160;2023-04-21T00:53:54;21.40;;;9.80;;
77080;SDS011;66009;53.150;18.160;2023-04-21T00:56:21;21.10;;;10.90;;
77080;SDS011;66009;53.150;18.160;2023-04-21T00:58:47;21.20;;;10.70;;
77080;SDS011;66009;53.150;18.160;2023-04-21T01:01:15;24.30;;;10.50;;
77080;SDS011;66009;53.150;18.160;2023-04-21T01:03:44;22.90;;;10.40;;
77080;SDS011;66009;53.150;18.160;2023-04-21T01:06:12;22.20;;;10.80;;
77080;SDS011;66009;53.150;18.160;2023-04-21T01:08:39;20.60;;;11.40;;
77080;SDS011;66009;53.150;18.160;2023-04-21T01:11:09;24.10;;;11.70;;
77080;SDS011;66009;53.150;18.160;2023-04-21T01:13:36;25.30;;;11.30;;
77080;SDS011;66009;53.150;18.160;2023-04-21T01:16:03;19.00;;;10.30;;
77080;SDS011;66009;53.150;18.160;2023-04-21T01:18:30;24.20;;;11.00;;
77080;SDS011;66009;53.150;18.160;2023-04-21T01:20:56;17.30;;;9.70;;
77080;SDS011;66009;53.150;18.160;2023-04-21T01:23:24;15.80;;;9.00;;
77080;SDS011;66009;53.150;18.160;2023-04-21T01:25:51;16.40;;;9.00;;
77080;SDS011;66009;53.150;18.160;2023-04-21T01:28:24;18.80;;;9.90;;
77080;SDS011;66009;53.150;18.160;2023-04-21T01:30:51;18.20;;;9.30;;
77080;SDS011;66009;53.150;18.160;2023-04-21T01:33:21;18.60;;;10.30;;
77080;SDS011;66009;53.150;18.160;2023-04-21T01:35:48;18.30;;;11.30;;
77080;SDS011;66009;53.150;18.160;2023-04-21T01:38:18;24.30;;;11.30;;
77080;SDS011;66009;53.150;18.160;2023-04-21T01:40:46;18.50;;;10.40;;
77080;SDS011;66009;53.150;18.160;2023-04-21T01:43:14;17.60;;;9.70;;
77080;SDS011;66009;53.150;18.160;2023-04-21T01:45:40;16.30;;;10.20;;
77080;SDS011;66009;53.150;18.160;2023-04-21T01:48:07;17.30;;;10.10;;
77080;SDS011;66009;53.150;18.160;2023-04-21T01:50:34;16.70;;;9.30;;
77080;SDS011;66009;53.150;18.160;2023-04-21T01:53:01;19.90;;;9.90;;
77080;SDS011;66009;53.150;18.160;2023-04-21T01:55:28;14.90;;;8.70;;
77080;SDS011;66009;53.150;18.160;2023-04-21T01:57:54;15.20;;;8.30;;
77080;SDS011;66009;53.150;18.160;2023-04-21T02:00:22;19.20;;;9.60;;
77080;SDS011;66009;53.150;18.160;2023-04-21T02:02:49;17.30;;;9.20;;
77080;SDS011;66009;53.150;18.160;2023-04-21T02:05:15;14.10;;;8.70;;
77080;SDS011;66009;53.150;18.160;2023-04-21T02:07:42;17.40;;;9.10;;
77080;SDS011;66009;53.150;18.160;2023-04-21T02:10:09;17.40;;;9.40;;
77080;SDS011;66009;53.150;18.160;2023-04-21T02:12:35;18.30;;;10.60;;
77080;SDS011;66009;53.150;18.160;2023-04-21T02:15:02;13.70;;;8.50;;
77080;SDS011;66009;53.150;18.160;2023-04-21T02:17:29;14.20;;;9.00;;
77080;SDS011;66009;53.150;18.160;2023-04-21T02:19:56;16.00;;;8.90;;
77080;SDS011;66009;53.150;18.160;2023-04-21T02:22:23;15.60;;;10.20;;
77080;SDS011;66009;53.150;18.160;2023-04-21T02:24:49;17.00;;;9.20;;
77080;SDS011;66009;53.150;18.160;2023-04-21T02:27:15;17.70;;;8.40;;
77080;SDS011;66009;53.150;18.160;2023-04-21T02:29:42;16.70;;;8.20;;
77080;SDS011;66009;53.150;18.160;2023-04-21T02:32:08;17.50;;;8.90;;
77080;SDS011;66009;53.150;18.160;2023-04-21T02:34:35;18.80;;;10.70;;
77080;SDS011;66009;53.150;18.160;2023-04-21T02:37:04;15.50;;;9.50;;
77080;SDS011;66009;53.150;18.160;2023-04-21T02:39:30;20.50;;;10.90;;
77080;SDS011;66009;53.150;18.160;2023-04-21T02:41:57;17.60;;;9.30;;
77080;SDS011;66009;53.150;18.160;2023-04-21T02:44:23;17.40;;;9.60;;
77080;SDS011;66009;53.150;18.160;2023-04-21T02:46:50;14.80;;;9.00;;
77080;SDS011;66009;53.150;18.160;2023-04-21T02:49:16;14.60;;;8.70;;
77080;SDS011;66009;53.150;18.160;2023-04-21T02:51:43;13.60;;;9.10;;
77080;SDS011;66009;53.150;18.160;2023-04-21T02:54:09;16.70;;;8.70;;
77080;SDS011;66009;53.150;18.160;2023-04-21T02:56:36;16.20;;;9.50;;
77080;SDS011;66009;53.150;18.160;2023-04-21T02:59:02;18.10;;;10.80;;
77080;SDS011;66009;53.150;18.160;2023-04-21T03:01:29;15.90;;;8.80;;
77080;SDS011;66009;53.150;18.160;2023-04-21T03:03:55;15.90;;;10.20;;
77080;SDS011;66009;53.150;18.160;2023-04-21T03:06:22;13.60;;;9.00;;
77080;SDS011;66009;53.150;18.160;2023-04-21T03:08:48;15.80;;;8.20;;
77080;SDS011;66009;53.150;18.160;2023-04-21T03:11:15;17.80;;;9.80;;
77080;SDS011;66009;53.150;18.160;2023-04-21T03:13:41;14.30;;;7.80;;
77080;SDS011;66009;53.150;18.160;2023-04-21T03:16:07;15.50;;;9.00;;
77080;SDS011;66009;53.150;18.160;2023-04-21T03:18:35;12.10;;;7.30;;
77080;SDS011;66009;53.150;18.160;2023-04-21T03:21:01;17.20;;;8.80;;
77080;SDS011;66009;53.150;18.160;2023-04-21T03:23:28;15.00;;;8.40;;
77080;SDS011;66009;53.150;18.160;2023-04-21T03:25:54;15.30;;;9.30;;
77080;SDS011;66009;53.150;18.160;2023-04-21T03:28:21;15.70;;;8.10;;
77080;SDS011;66009;53.150;18.160;2023-04-21T03:30:47;18.80;;;10.30;;
77080;SDS011;66009;53.150;18.160;2023-04-21T03:33:14;15.20;;;9.10;;
77080;SDS011;66009;53.150;18.160;2023-04-21T03:35:40;15.70;;;8.90;;
77080;SDS011;66009;53.150;18.160;2023-04-21T03:38:07;15.40;;;8.50;;
77080;SDS011;66009;53.150;18.160;2023-04-21T03:40:35;13.30;;;8.10;;
77080;SDS011;66009;53.150;18.160;2023-04-21T03:43:02;13.40;;;9.00;;
77080;SDS011;66009;53.150;18.160;2023-04-21T03:45:29;18.20;;;9.00;;
77080;SDS011;66009;53.150;18.160;2023-04-21T03:47:57;14.60;;;8.20;;
77080;SDS011;66009;53.150;18.160;2023-04-21T03:50:24;12.60;;;6.80;;
77080;SDS011;66009;53.150;18.160;2023-04-21T03:52:50;14.30;;;9.10;;
77080;SDS011;66009;53.150;18.160;2023-04-21T03:55:17;19.10;;;9.60;;
77080;SDS011;66009;53.150;18.160;2023-04-21T03:57:43;18.60;;;9.90;;
77080;SDS011;66009;53.150;18.160;2023-04-21T04:00:10;16.80;;;8.80;;
77080;SDS011;66009;53.150;18.160;2023-04-21T04:02:39;15.70;;;10.20;;
77080;SDS011;66009;53.150;18.160;2023-04-21T04:05:06;14.60;;;9.00;;
77080;SDS011;66009;53.150;18.160;2023-04-21T04:07:32;15.10;;;8.90;;
77080;SDS011;66009;53.150;18.160;2023-04-21T04:09:59;15.40;;;9.40;;
77080;SDS011;66009;53.150;18.160;2023-04-21T04:12:26;19.60;;;11.00;;
77080;SDS011;66009;53.150;18.160;2023-04-21T04:14:52;16.50;;;9.40;;
77080;SDS011;66009;53.150;18.160;2023-04-21T04:17:19;18.90;;;9.40;;
77080;SDS011;66009;53.150;18.160;2023-04-21T04:19:45;16.20;;;7.80;;
77080;SDS011;66009;53.150;18.160;2023-04-21T04:22:12;16.90;;;9.60;;
77080;SDS011;66009;53.150;18.160;2023-04-21T04:24:38;22.50;;;11.50;;
77080;SDS011;66009;53.150;18.160;2023-04-21T04:27:05;17.40;;;9.60;;
77080;SDS011;66009;53.150;18.160;2023-04-21T04:29:32;17.40;;;9.10;;
77080;SDS011;66009;53.150;18.160;2023-04-21T04:31:58;17.50;;;10.00;;
77080;SDS011;66009;53.150;18.160;2023-04-21T04:34:26;17.30;;;10.30;;
77080;SDS011;66009;53.150;18.160;2023-04-21T04:36:53;18.10;;;9.20;;
77080;SDS011;66009;53.150;18.160;2023-04-21T04:39:19;17.60;;;9.70;;
77080;SDS011;66009;53.150;18.160;2023-04-21T04:41:47;17.20;;;8.80;;
77080;SDS011;66009;53.150;18.160;2023-04-21T04:44:14;17.40;;;9.50;;
77080;SDS011;66009;53.150;18.160;2023-04-21T04:46:41;16.20;;;8.50;;
77080;SDS011;66009;53.150;18.160;2023-04-21T04:49:08;12.80;;;7.70;;
77080;SDS011;66009;53.150;18.160;2023-04-21T04:51:34;15.60;;;7.50;;
77080;SDS011;66009;53.150;18.160;2023-04-21T04:54:01;15.10;;;8.30;;
77080;SDS011;66009;53.150;18.160;2023-04-21T04:56:28;18.10;;;8.80;;
77080;SDS011;66009;53.150;18.160;2023-04-21T04:58:55;14.00;;;8.60;;
77080;SDS011;66009;53.150;18.160;2023-04-21T05:01:21;16.80;;;9.90;;
77080;SDS011;66009;53.150;18.160;2023-04-21T05:03:54;20.50;;;10.10;;
77080;SDS011;66009;53.150;18.160;2023-04-21T05:06:21;16.50;;;9.90;;
77080;SDS011;66009;53.150;18.160;2023-04-21T05:08:48;16.10;;;10.00;;
77080;SDS011;66009;53.150;18.160;2023-04-21T05:11:14;18.90;;;10.30;;
77080;SDS011;66009;53.150;18.160;2023-04-21T05:13:40;17.10;;;9.80;;
77080;SDS011;66009;53.150;18.160;2023-04-21T05:16:07;17.70;;;9.10;;
77080;SDS011;66009;53.150;18.160;2023-04-21T05:18:35;18.00;;;9.60;;
77080;SDS011;66009;53.150;18.160;2023-04-21T05:21:01;12.10;;;7.70;;
77080;SDS011;66009;53.150;18.160;2023-04-21T05:23:28;15.50;;;9.40;;
77080;SDS011;66009;53.150;18.160;2023-04-21T05:25:54;19.10;;;10.80;;
77080;SDS011;66009;53.150;18.160;2023-04-21T05:28:21;18.40;;;11.20;;
77080;SDS011;66009;53.150;18.160;2023-04-21T05:30:48;22.00;;;12.50;;
77080;SDS011;66009;53.150;18.160;2023-04-21T05:33:16;17.70;;;11.20;;
77080;SDS011;66009;53.150;18.160;2023-04-21T05:35:43;18.50;;;11.20;;
77080;SDS011;66009;53.150;18.160;2023-04-21T05:38:09;24.10;;;11.30;;
77080;SDS011;66009;53.150;18.160;2023-04-21T05:40:36;20.80;;;11.30;;
77080;SDS011;66009;53.150;18.160;2023-04-21T05:43:03;19.50;;;10.70;;
77080;SDS011;66009;53.150;18.160;2023-04-21T05:45:29;21.20;;;10.00;;
77080;SDS011;66009;53.150;18.160;2023-04-21T05:47:56;23.20;;;11.50;;
77080;SDS011;66009;53.150;18.160;2023-04-21T05:50:22;22.50;;;11.40;;
77080;SDS011;66009;53.150;18.160;2023-04-21T05:52:48;20.30;;;11.50;;
77080;SDS011;66009;53.150;18.160;2023-04-21T05:55:15;19.50;;;11.90;;
77080;SDS011;66009;53.150;18.160;2023-04-21T05:57:41;16.80;;;10.00;;
77080;SDS011;66009;53.150;18.160;2023-04-21T06:00:08;20.00;;;10.60;;
77080;SDS011;66009;53.150;18.160;2023-04-21T06:02:35;21.60;;;11.00;;
77080;SDS011;66009;53.150;18.160;2023-04-21T06:05:01;17.70;;;9.60;;
77080;SDS011;66009;53.150;18.160;2023-04-21T06:07:28;18.80;;;10.40;;
77080;SDS011;66009;53.150;18.160;2023-04-21T06:09:54;16.40;;;10.20;;
77080;SDS011;66009;53.150;18.160;2023-04-21T06:12:21;17.50;;;10.10;;
77080;SDS011;66009;53.150;18.160;2023-04-21T06:14:47;18.00;;;8.90;;
77080;SDS011;66009;53.150;18.160;2023-04-21T06:17:17;16.60;;;8.70;;
77080;SDS011;66009;53.150;18.160;2023-04-21T06:19:44;14.90;;;7.70;;
77080;SDS011;66009;53.150;18.160;2023-04-21T06:22:10;17.20;;;8.50;;
77080;SDS011;66009;53.150;18.160;2023-04-21T06:24:37;13.90;;;8.70;;
77080;SDS011;66009;53.150;18.160;2023-04-21T06:27:08;12.80;;;8.20;;
77080;SDS011;66009;53.150;18.160;2023-04-21T06:29:34;14.50;;;8.30;;
77080;SDS011;66009;53.150;18.160;2023-04-21T06:32:01;11.80;;;8.10;;
77080;SDS011;66009;53.150;18.160;2023-04-21T06:34:27;10.60;;;7.10;;
77080;SDS011;66009;53.150;18.160;2023-04-21T06:36:54;11.40;;;7.50;;
77080;SDS011;66009;53.150;18.160;2023-04-21T06:39:20;10.30;;;6.50;;
77080;SDS011;66009;53.150;18.160;2023-04-21T06:41:47;10.60;;;6.80;;
77080;SDS011;66009;53.150;18.160;2023-04-21T06:44:13;10.60;;;7.00;;
77080;SDS011;66009;53.150;18.160;2023-04-21T06:46:40;11.00;;;6.90;;
77080;SDS011;66009;53.150;18.160;2023-04-21T06:49:07;9.90;;;7.00;;
77080;SDS011;66009;53.150;18.160;2023-04-21T06:51:34;13.10;;;8.00;;
77080;SDS011;66009;53.150;18.160;2023-04-21T06:54:00;10.60;;;7.10;;
77080;SDS011;66009;53.150;18.160;2023-04-21T06:56:27;8.90;;;6.40;;
77080;SDS011;66009;53.150;18.160;2023-04-21T06:58:54;10.90;;;6.70;;
77080;SDS011;66009;53.150;18.160;2023-04-21T07:01:21;9.50;;;6.30;;
77080;SDS011;66009;53.150;18.160;2023-04-21T07:03:49;10.50;;;6.80;;
77080;SDS011;66009;53.150;18.160;2023-04-21T07:06:16;11.30;;;7.50;;
77080;SDS011;66009;53.150;18.160;2023-04-21T07:08:42;11.30;;;7.50;;
77080;SDS011;66009;53.150;18.160;2023-04-21T07:11:09;9.20;;;6.60;;
77080;SDS011;66009;53.150;18.160;2023-04-21T07:13:35;9.20;;;6.30;;
77080;SDS011;66009;53.150;18.160;2023-04-21T07:16:02;10.20;;;6.80;;
77080;SDS011;66009;53.150;18.160;2023-04-21T07:18:28;10.60;;;6.30;;
77080;SDS011;66009;53.150;18.160;2023-04-21T07:20:55;10.50;;;7.50;;
77080;SDS011;66009;53.150;18.160;2023-04-21T07:23:21;10.80;;;6.60;;
77080;SDS011;66009;53.150;18.160;2023-04-21T07:25:48;10.10;;;6.80;;
77080;SDS011;66009;53.150;18.160;2023-04-21T07:28:14;8.70;;;6.30;;
77080;SDS011;66009;53.150;18.160;2023-04-21T07:30:41;10.20;;;6.80;;
77080;SDS011;66009;53.150;18.160;2023-04-21T07:33:07;8.70;;;6.30;;
77080;SDS011;66009;53.150;18.160;2023-04-21T07:35:34;10.20;;;6.60;;
77080;SDS011;66009;53.150;18.160;2023-04-21T07:38:01;7.80;;;6.50;;
77080;SDS011;66009;53.150;18.160;2023-04-21T07:40:27;9.90;;;6.80;;
77080;SDS011;66009;53.150;18.160;2023-04-21T07:42:54;9.00;;;6.80;;
77080;SDS011;66009;53.150;18.160;2023-04-21T07:45:20;8.70;;;6.10;;
77080;SDS011;66009;53.150;18.160;2023-04-21T07:47:47;12.20;;;6.50;;
77080;SDS011;66009;53.150;18.160;2023-04-21T07:50:13;9.10;;;6.40;;
77080;SDS011;66009;53.150;18.160;2023-04-21T07:52:40;7.50;;;6.20;;
77080;SDS011;66009;53.150;18.160;2023-04-21T07:55:06;8.40;;;6.50;;
77080;SDS011;66009;53.150;18.160;2023-04-21T07:57:33;8.00;;;6.10;;
77080;SDS011;66009;53.150;18.160;2023-04-21T08:00:03;8.40;;;5.90;;
77080;SDS011;66009;53.150;18.160;2023-04-21T08:02:38;9.50;;;6.60;;
77080;SDS011;66009;53.150;18.160;2023-04-21T08:05:05;7.90;;;6.10;;
77080;SDS011;66009;53.150;18.160;2023-04-21T08:07:31;9.60;;;6.40;;
77080;SDS011;66009;53.150;18.160;2023-04-21T08:09:58;9.90;;;6.30;;
77080;SDS011;66009;53.150;18.160;2023-04-21T08:12:25;7.60;;;5.30;;
77080;SDS011;66009;53.150;18.160;2023-04-21T08:17:18;8.20;;;5.80;;
77080;SDS011;66009;53.150;18.160;2023-04-21T08:19:44;7.90;;;5.90;;
77080;SDS011;66009;53.150;18.160;2023-04-21T08:22:11;8.20;;;5.90;;
77080;SDS011;66009;53.150;18.160;2023-04-21T08:24:37;10.20;;;5.90;;
77080;SDS011;66009;53.150;18.160;2023-04-21T08:27:04;6.50;;;5.40;;
77080;SDS011;66009;53.150;18.160;2023-04-21T08:29:31;7.30;;;5.50;;
77080;SDS011;66009;53.150;18.160;2023-04-21T08:31:57;7.40;;;6.00;;
77080;SDS011;66009;53.150;18.160;2023-04-21T08:34:24;7.20;;;5.70;;
77080;SDS011;66009;53.150;18.160;2023-04-21T08:36:50;8.00;;;5.90;;
77080;SDS011;66009;53.150;18.160;2023-04-21T08:39:17;7.50;;;5.60;;
77080;SDS011;66009;53.150;18.160;2023-04-21T08:41:43;8.80;;;5.80;;
77080;SDS011;66009;53.150;18.160;2023-04-21T08:44:10;8.20;;;5.20;;
77080;SDS011;66009;53.150;18.160;2023-04-21T08:46:40;8.90;;;5.40;;
77080;SDS011;66009;53.150;18.160;2023-04-21T08:49:08;8.50;;;5.70;;
77080;SDS011;66009;53.150;18.160;2023-04-21T08:51:35;7.50;;;5.60;;
77080;SDS011;66009;53.150;18.160;2023-04-21T08:56:27;8.70;;;5.40;;
77080;SDS011;66009;53.150;18.160;2023-04-21T09:01:20;7.40;;;5.10;;
77080;SDS011;66009;53.150;18.160;2023-04-21T09:06:13;10.30;;;5.70;;
77080;SDS011;66009;53.150;18.160;2023-04-21T09:08:43;8.00;;;5.70;;
77080;SDS011;66009;53.150;18.160;2023-04-21T09:11:17;5.40;;;4.60;;
77080;SDS011;66009;53.150;18.160;2023-04-21T09:13:44;6.10;;;5.10;;
77080;SDS011;66009;53.150;18.160;2023-04-21T09:16:15;5.60;;;5.00;;
77080;SDS011;66009;53.150;18.160;2023-04-21T09:18:43;6.20;;;5.10;;
77080;SDS011;66009;53.150;18.160;2023-04-21T09:21:11;7.80;;;4.40;;
77080;SDS011;66009;53.150;18.160;2023-04-21T09:23:38;9.00;;;5.90;;
77080;SDS011;66009;53.150;18.160;2023-04-21T09:26:04;6.20;;;5.00;;
77080;SDS011;66009;53.150;18.160;2023-04-21T09:28:31;6.60;;;5.10;;
77080;SDS011;66009;53.150;18.160;2023-04-21T09:30:58;6.10;;;5.00;;
77080;SDS011;66009;53.150;18.160;2023-04-21T09:33:24;7.10;;;4.90;;
77080;SDS011;66009;53.150;18.160;2023-04-21T09:35:51;6.10;;;4.40;;
77080;SDS011;66009;53.150;18.160;2023-04-21T09:38:20;5.20;;;3.70;;
77080;SDS011;66009;53.150;18.160;2023-04-21T09:40:56;5.80;;;4.20;;
77080;SDS011;66009;53.150;18.160;2023-04-21T09:43:23;4.80;;;3.90;;
77080;SDS011;66009;53.150;18.160;2023-04-21T09:45:50;6.80;;;4.20;;
77080;SDS011;66009;53.150;18.160;2023-04-21T09:48:17;7.80;;;4.00;;
77080;SDS011;66009;53.150;18.160;2023-04-21T09:50:45;7.20;;;4.00;;
77080;SDS011;66009;53.150;18.160;2023-04-21T09:53:13;6.60;;;4.10;;
77080;SDS011;66009;53.150;18.160;2023-04-21T09:55:40;7.10;;;4.30;;
77080;SDS011;66009;53.150;18.160;2023-04-21T09:58:06;5.20;;;3.80;;
77080;SDS011;66009;53.150;18.160;2023-04-21T10:00:34;4.50;;;3.40;;
77080;SDS011;66009;53.150;18.160;2023-04-21T10:03:04;5.00;;;3.30;;
77080;SDS011;66009;53.150;18.160;2023-04-21T10:05:37;6.40;;;4.00;;
77080;SDS011;66009;53.150;18.160;2023-04-21T10:08:03;4.60;;;3.40;;
77080;SDS011;66009;53.150;18.160;2023-04-21T10:10:32;6.30;;;3.80;;
77080;SDS011;66009;53.150;18.160;2023-04-21T10:13:00;4.50;;;3.50;;
77080;SDS011;66009;53.150;18.160;2023-04-21T10:15:28;4.50;;;3.20;;
77080;SDS011;66009;53.150;18.160;2023-04-21T10:18:09;5.50;;;3.40;;
77080;SDS011;66009;53.150;18.160;2023-04-21T10:23:28;7.50;;;3.50;;
77080;SDS011;66009;53.150;18.160;2023-04-21T10:26:17;4.90;;;3.50;;
77080;SDS011;66009;53.150;18.160;2023-04-21T10:31:58;6.00;;;3.30;;
77080;SDS011;66009;53.150;18.160;2023-04-21T10:34:36;4.10;;;2.70;;
77080;SDS011;66009;53.150;18.160;2023-04-21T10:39:31;6.50;;;2.80;;
77080;SDS011;66009;53.150;18.160;2023-04-21T10:42:23;5.00;;;2.70;;
77080;SDS011;66009;53.150;18.160;2023-04-21T10:44:51;4.90;;;3.20;;
77080;SDS011;66009;53.150;18.160;2023-04-21T10:47:23;4.80;;;2.80;;
77080;SDS011;66009;53.150;18.160;2023-04-21T10:49:50;5.70;;;3.10;;
77080;SDS011;66009;53.150;18.160;2023-04-21T10:52:16;5.20;;;3.10;;
77080;SDS011;66009;53.150;18.160;2023-04-21T10:57:12;3.90;;;2.50;;
77080;SDS011;66009;53.150;18.160;2023-04-21T10:59:38;4.40;;;2.90;;
77080;SDS011;66009;53.150;18.160;2023-04-21T11:02:05;3.60;;;2.80;;
77080;SDS011;66009;53.150;18.160;2023-04-21T11:04:33;6.70;;;3.10;;
77080;SDS011;66009;53.150;18.160;2023-04-21T11:09:45;7.10;;;3.40;;
77080;SDS011;66009;53.150;18.160;2023-04-21T11:12:13;6.50;;;3.40;;
77080;SDS011;66009;53.150;18.160;2023-04-21T11:14:40;6.50;;;3.10;;
77080;SDS011;66009;53.150;18.160;2023-04-21T11:17:15;5.30;;;3.20;;
77080;SDS011;66009;53.150;18.160;2023-04-21T11:19:52;4.50;;;3.70;;
77080;SDS011;66009;53.150;18.160;2023-04-21T11:22:20;6.70;;;3.60;;
77080;SDS011;66009;53.150;18.160;2023-04-21T11:24:47;6.10;;;3.40;;
77080;SDS011;66009;53.150;18.160;2023-04-21T11:27:13;5.70;;;3.00;;
77080;SDS011;66009;53.150;18.160;2023-04-21T11:29:40;4.10;;;3.10;;
77080;SDS011;66009;53.150;18.160;2023-04-21T11:32:07;5.10;;;3.10;;
77080;SDS011;66009;53.150;18.160;2023-04-21T11:34:37;4.60;;;3.30;;
77080;SDS011;66009;53.150;18.160;2023-04-21T11:37:08;5.30;;;2.80;;
77080;SDS011;66009;53.150;18.160;2023-04-21T11:39:35;5.50;;;3.10;;
77080;SDS011;66009;53.150;18.160;2023-04-21T11:42:01;6.40;;;3.00;;
77080;SDS011;66009;53.150;18.160;2023-04-21T11:49:50;5.30;;;3.30;;
77080;SDS011;66009;53.150;18.160;2023-04-21T11:52:20;5.20;;;3.70;;
77080;SDS011;66009;53.150;18.160;2023-04-21T11:54:46;6.00;;;3.70;;
77080;SDS011;66009;53.150;18.160;2023-04-21T11:57:16;5.20;;;3.50;;
77080;SDS011;66009;53.150;18.160;2023-04-21T11:59:44;5.20;;;3.20;;
77080;SDS011;66009;53.150;18.160;2023-04-21T12:02:12;4.60;;;3.30;;
77080;SDS011;66009;53.150;18.160;2023-04-21T12:04:38;4.10;;;3.10;;
77080;SDS011;66009;53.150;18.160;2023-04-21T12:07:05;4.80;;;3.10;;
77080;SDS011;66009;53.150;18.160;2023-04-21T12:09:31;5.00;;;3.00;;
77080;SDS011;66009;53.150;18.160;2023-04-21T12:12:02;4.60;;;2.90;;
77080;SDS011;66009;53.150;18.160;2023-04-21T12:14:32;4.60;;;3.20;;
77080;SDS011;66009;53.150;18.160;2023-04-21T12:16:58;4.10;;;3.10;;
77080;SDS011;66009;53.150;18.160;2023-04-21T12:19:35;5.40;;;3.20;;
77080;SDS011;66009;53.150;18.160;2023-04-21T12:22:05;4.80;;;2.70;;
77080;SDS011;66009;53.150;18.160;2023-04-21T12:24:31;4.80;;;3.10;;
77080;SDS011;66009;53.150;18.160;2023-04-21T12:26:58;4.10;;;3.00;;
77080;SDS011;66009;53.150;18.160;2023-04-21T12:29:24;3.80;;;2.60;;
77080;SDS011;66009;53.150;18.160;2023-04-21T12:31:51;7.30;;;2.60;;
77080;SDS011;66009;53.150;18.160;2023-04-21T12:34:17;6.50;;;2.70;;
77080;SDS011;66009;53.150;18.160;2023-04-21T12:36:44;3.10;;;2.00;;
77080;SDS011;66009;53.150;18.160;2023-04-21T12:39:10;5.00;;;2.70;;
77080;SDS011;66009;53.150;18.160;2023-04-21T12:41:39;4.40;;;2.60;;
77080;SDS011;66009;53.150;18.160;2023-04-21T12:44:05;4.70;;;3.10;;
77080;SDS011;66009;53.150;18.160;2023-04-21T12:46:32;4.80;;;2.50;;
77080;SDS011;66009;53.150;18.160;2023-04-21T12:48:58;4.80;;;2.50;;
77080;SDS011;66009;53.150;18.160;2023-04-21T12:51:25;5.20;;;2.40;;
77080;SDS011;66009;53.150;18.160;2023-04-21T12:53:51;6.20;;;2.60;;
77080;SDS011;66009;53.150;18.160;2023-04-21T12:56:18;6.20;;;3.00;;
77080;SDS011;66009;53.150;18.160;2023-04-21T13:01:13;5.10;;;2.50;;
77080;SDS011;66009;53.150;18.160;2023-04-21T13:03:41;5.30;;;2.60;;
77080;SDS011;66009;53.150;18.160;2023-04-21T13:06:07;6.30;;;2.60;;
77080;SDS011;66009;53.150;18.160;2023-04-21T13:08:34;6.90;;;3.00;;
77080;SDS011;66009;53.150;18.160;2023-04-21T13:11:02;5.00;;;2.40;;
77080;SDS011;66009;53.150;18.160;2023-04-21T13:13:29;5.40;;;2.50;;
77080;SDS011;66009;53.150;18.160;2023-04-21T13:15:56;4.70;;;2.40;;
77080;SDS011;66009;53.150;18.160;2023-04-21T13:18:22;5.60;;;2.60;;
77080;SDS011;66009;53.150;18.160;2023-04-21T13:20:49;5.30;;;2.50;;
77080;SDS011;66009;53.150;18.160;2023-04-21T13:23:15;6.60;;;2.60;;
77080;SDS011;66009;53.150;18.160;2023-04-21T13:25:42;6.00;;;3.00;;
77080;SDS011;66009;53.150;18.160;2023-04-21T13:28:10;4.40;;;2.50;;
77080;SDS011;66009;53.150;18.160;2023-04-21T13:30:39;5.30;;;2.90;;
77080;SDS011;66009;53.150;18.160;2023-04-21T13:33:05;7.10;;;2.80;;
77080;SDS011;66009;53.150;18.160;2023-04-21T13:35:32;5.10;;;2.90;;
77080;SDS011;66009;53.150;18.160;2023-04-21T13:37:58;4.40;;;2.70;;
77080;SDS011;66009;53.150;18.160;2023-04-21T13:40:24;7.50;;;2.80;;
77080;SDS011;66009;53.150;18.160;2023-04-21T13:42:51;5.80;;;3.40;;
77080;SDS011;66009;53.150;18.160;2023-04-21T13:45:17;7.00;;;3.20;;
77080;SDS011;66009;53.150;18.160;2023-04-21T13:47:44;5.60;;;2.70;;
77080;SDS011;66009;53.150;18.160;2023-04-21T13:50:10;5.70;;;3.20;;
77080;SDS011;66009;53.150;18.160;2023-04-21T13:52:37;6.60;;;3.30;;
77080;SDS011;66009;53.150;18.160;2023-04-21T13:55:03;4.50;;;2.60;;
77080;SDS011;66009;53.150;18.160;2023-04-21T13:57:30;5.20;;;2.80;;
77080;SDS011;66009;53.150;18.160;2023-04-21T13:59:57;6.90;;;3.10;;
77080;SDS011;66009;53.150;18.160;2023-04-21T14:02:23;5.70;;;3.00;;
77080;SDS011;66009;53.150;18.160;2023-04-21T14:04:51;4.70;;;2.70;;
77080;SDS011;66009;53.150;18.160;2023-04-21T14:07:17;6.90;;;2.80;;
77080;SDS011;66009;53.150;18.160;2023-04-21T14:09:45;4.70;;;2.90;;
77080;SDS011;66009;53.150;18.160;2023-04-21T14:12:11;5.70;;;2.80;;
77080;SDS011;66009;53.150;18.160;2023-04-21T14:14:38;5.40;;;3.20;;
77080;SDS011;66009;53.150;18.160;2023-04-21T14:17:04;6.30;;;2.50;;
77080;SDS011;66009;53.150;18.160;2023-04-21T14:19:31;5.70;;;3.20;;
77080;SDS011;66009;53.150;18.160;2023-04-21T14:21:57;4.90;;;2.90;;
77080;SDS011;66009;53.150;18.160;2023-04-21T14:24:23;7.80;;;3.20;;
77080;SDS011;66009;53.150;18.160;2023-04-21T14:26:53;6.00;;;3.00;;
77080;SDS011;66009;53.150;18.160;2023-04-21T14:29:21;4.90;;;2.60;;
77080;SDS011;66009;53.150;18.160;2023-04-21T14:31:48;5.50;;;3.20;;
77080;SDS011;66009;53.150;18.160;2023-04-21T14:34:15;5.70;;;2.90;;
77080;SDS011;66009;53.150;18.160;2023-04-21T14:36:41;5.40;;;2.90;;
77080;SDS011;66009;53.150;18.160;2023-04-21T14:39:08;6.70;;;2.90;;
77080;SDS011;66009;53.150;18.160;2023-04-21T14:41:35;5.60;;;2.80;;
77080;SDS011;66009;53.150;18.160;2023-04-21T14:44:01;5.70;;;2.60;;
77080;SDS011;66009;53.150;18.160;2023-04-21T14:46:29;5.70;;;3.00;;
77080;SDS011;66009;53.150;18.160;2023-04-21T14:48:55;5.80;;;2.70;;
77080;SDS011;66009;53.150;18.160;2023-04-21T14:51:22;5.80;;;2.80;;
77080;SDS011;66009;53.150;18.160;2023-04-21T14:53:49;6.40;;;3.10;;
77080;SDS011;66009;53.150;18.160;2023-04-21T14:56:16;6.10;;;2.80;;
77080;SDS011;66009;53.150;18.160;2023-04-21T14:58:44;5.10;;;2.70;;